sensor_id;sensor_type;location;lat;lon;timestamp;pressure;altitude;pressure_sealevel;temperature
19102;BMP280;9683;49.028;12.064;2023-03-25T00:00:09;96597.06;;;12.06
19102;BMP280;9683;49.028;12.064;2023-03-25T00:02:41;96598.38;;;12.03
19102;BMP280;9683;49.028;12.064;2023-03-25T00:05:09;96596.75;;;12.02
19102;BMP280;9683;49.028;12.064;2023-03-25T00:07:37;96602.31;;;12.01
19102;BMP280;9683;49.028;12.064;2023-03-25T00:10:04;96601.22;;;11.97
19102;BMP280;9683;49.028;12.064;2023-03-25T00:12:31;96588.63;;;11.92
19102;BMP280;9683;49.028;12.064;2023-03-25T00:14:57;96595.50;;;11.88
19102;BMP280;9683;49.028;12.064;2023-03-25T00:17:25;96592.53;;;11.84
19102;BMP280;9683;49.028;12.064;2023-03-25T00:19:54;96602.31;;;11.79
19102;BMP280;9683;49.028;12.064;2023-03-25T00:22:21;96596.66;;;11.75
19102;BMP280;9683;49.028;12.064;2023-03-25T00:24:48;96597.47;;;11.76
19102;BMP280;9683;49.028;12.064;2023-03-25T00:27:15;96593.53;;;11.78
19102;BMP280;9683;49.028;12.064;2023-03-25T00:29:42;96594.88;;;11.81
19102;BMP280;9683;49.028;12.064;2023-03-25T00:32:09;96595.69;;;11.81
19102;BMP280;9683;49.028;12.064;2023-03-25T00:34:36;96589.31;;;11.82
19102;BMP280;9683;49.028;12.064;2023-03-25T00:37:08;96586.38;;;11.84
19102;BMP280;9683;49.028;12.064;2023-03-25T00:39:34;96587.69;;;11.81
19102;BMP280;9683;49.028;12.064;2023-03-25T00:42:01;96586.59;;;11.77
19102;BMP280;9683;49.028;12.064;2023-03-25T00:44:28;96588.22;;;11.78
19102;BMP280;9683;49.028;12.064;2023-03-25T00:46:55;96588.69;;;11.75
19102;BMP280;9683;49.028;12.064;2023-03-25T00:49:22;96584.66;;;11.73
19102;BMP280;9683;49.028;12.064;2023-03-25T00:51:49;96577.91;;;11.70
19102;BMP280;9683;49.028;12.064;2023-03-25T00:54:17;96572.69;;;11.75
19102;BMP280;9683;49.028;12.064;2023-03-25T00:56:46;96587.06;;;11.74
19102;BMP280;9683;49.028;12.064;2023-03-25T00:59:12;96579.31;;;11.73
19102;BMP280;9683;49.028;12.064;2023-03-25T01:01:39;96571.22;;;11.68
19102;BMP280;9683;49.028;12.064;2023-03-25T01:04:08;96574.63;;;11.63
19102;BMP280;9683;49.028;12.064;2023-03-25T01:06:38;96559.66;;;11.57
19102;BMP280;9683;49.028;12.064;2023-03-25T01:09:10;96563.09;;;11.58
19102;BMP280;9683;49.028;12.064;2023-03-25T01:11:40;96566.53;;;11.53
19102;BMP280;9683;49.028;12.064;2023-03-25T01:14:12;96565.94;;;11.51
19102;BMP280;9683;49.028;12.064;2023-03-25T01:16:39;96554.72;;;11.49
19102;BMP280;9683;49.028;12.064;2023-03-25T01:19:06;96561.66;;;11.50
19102;BMP280;9683;49.028;12.064;2023-03-25T01:21:32;96550.47;;;11.48
19102;BMP280;9683;49.028;12.064;2023-03-25T01:24:01;96558.19;;;11.49
19102;BMP280;9683;49.028;12.064;2023-03-25T01:26:27;96551.28;;;11.48
19102;BMP280;9683;49.028;12.064;2023-03-25T01:28:56;96553.13;;;11.48
19102;BMP280;9683;49.028;12.064;2023-03-25T01:31:22;96555.22;;;11.46
19102;BMP280;9683;49.028;12.064;2023-03-25T01:33:50;96558.16;;;11.44
19102;BMP280;9683;49.028;12.064;2023-03-25T01:36:16;96558.16;;;11.44
19102;BMP280;9683;49.028;12.064;2023-03-25T01:38:45;96555.72;;;11.43
19102;BMP280;9683;49.028;12.064;2023-03-25T01:41:12;96565.25;;;11.39
19102;BMP280;9683;49.028;12.064;2023-03-25T01:43:38;96561.47;;;11.35
19102;BMP280;9683;49.028;12.064;2023-03-25T01:46:10;96566.59;;;11.41
19102;BMP280;9683;49.028;12.064;2023-03-25T01:48:40;96558.31;;;11.38
19102;BMP280;9683;49.028;12.064;2023-03-25T01:51:10;96559.94;;;11.39
19102;BMP280;9683;49.028;12.064;2023-03-25T01:53:38;96559.94;;;11.39
19102;BMP280;9683;49.028;12.064;2023-03-25T01:56:06;96552.16;;;11.37
19102;BMP280;9683;49.028;12.064;2023-03-25T01:58:36;96543.13;;;11.38
19102;BMP280;9683;49.028;12.064;2023-03-25T02:01:03;96548.22;;;11.40
19102;BMP280;9683;49.028;12.064;2023-03-25T02:03:33;96543.44;;;11.42
19102;BMP280;9683;49.028;12.064;2023-03-25T02:06:03;96555.41;;;11.39
19102;BMP280;9683;49.028;12.064;2023-03-25T02:08:34;96538.69;;;11.44
19102;BMP280;9683;49.028;12.064;2023-03-25T02:11:04;96542.94;;;11.45
19102;BMP280;9683;49.028;12.064;2023-03-25T02:13:32;96534.41;;;11.43
19102;BMP280;9683;49.028;12.064;2023-03-25T02:16:16;96538.72;;;11.49
19102;BMP280;9683;49.028;12.064;2023-03-25T02:18:53;96540.13;;;11.52
19102;BMP280;9683;49.028;12.064;2023-03-25T02:21:41;96547.59;;;11.55
19102;BMP280;9683;49.028;12.064;2023-03-25T02:27:21;96546.72;;;11.49
19102;BMP280;9683;49.028;12.064;2023-03-25T02:30:08;96541.91;;;11.46
19102;BMP280;9683;49.028;12.064;2023-03-25T02:32:54;96542.47;;;11.48
19102;BMP280;9683;49.028;12.064;2023-03-25T02:35:33;96548.63;;;11.48
19102;BMP280;9683;49.028;12.064;2023-03-25T02:38:20;96548.63;;;11.48
19102;BMP280;9683;49.028;12.064;2023-03-25T02:40:53;96548.03;;;11.46
19102;BMP280;9683;49.028;12.064;2023-03-25T02:43:27;96548.84;;;11.47
19102;BMP280;9683;49.028;12.064;2023-03-25T02:45:58;96567.19;;;11.43
19102;BMP280;9683;49.028;12.064;2023-03-25T02:48:29;96550.56;;;11.36
19102;BMP280;9683;49.028;12.064;2023-03-25T02:51:00;96554.28;;;11.35
19102;BMP280;9683;49.028;12.064;2023-03-25T02:53:33;96536.69;;;11.34
19102;BMP280;9683;49.028;12.064;2023-03-25T02:56:04;96533.78;;;11.36
19102;BMP280;9683;49.028;12.064;2023-03-25T02:58:33;96548.38;;;11.33
19102;BMP280;9683;49.028;12.064;2023-03-25T03:01:00;96528.38;;;11.31
19102;BMP280;9683;49.028;12.064;2023-03-25T03:03:27;96529.19;;;11.31
19102;BMP280;9683;49.028;12.064;2023-03-25T03:05:56;96540.97;;;11.35
19102;BMP280;9683;49.028;12.064;2023-03-25T03:08:40;96547.66;;;11.38
19102;BMP280;9683;49.028;12.064;2023-03-25T03:11:12;96534.34;;;11.38
19102;BMP280;9683;49.028;12.064;2023-03-25T03:13:58;96528.19;;;11.37
19102;BMP280;9683;49.028;12.064;2023-03-25T03:16:32;96525.81;;;11.36
19102;BMP280;9683;49.028;12.064;2023-03-25T03:19:07;96548.16;;;11.35
19102;BMP280;9683;49.028;12.064;2023-03-25T03:21:41;96526.53;;;11.31
19102;BMP280;9683;49.028;12.064;2023-03-25T03:24:15;96521.75;;;11.33
19102;BMP280;9683;49.028;12.064;2023-03-25T03:26:46;96530.31;;;11.35
19102;BMP280;9683;49.028;12.064;2023-03-25T03:29:16;96532.16;;;11.35
19102;BMP280;9683;49.028;12.064;2023-03-25T03:31:47;96532.41;;;11.33
19102;BMP280;9683;49.028;12.064;2023-03-25T03:34:19;96522.25;;;11.30
19102;BMP280;9683;49.028;12.064;2023-03-25T03:36:49;96520.63;;;11.29
19102;BMP280;9683;49.028;12.064;2023-03-25T03:39:22;96519.03;;;11.28
19102;BMP280;9683;49.028;12.064;2023-03-25T03:41:53;96524.34;;;11.28
19102;BMP280;9683;49.028;12.064;2023-03-25T03:44:23;96518.78;;;11.30
19102;BMP280;9683;49.028;12.064;2023-03-25T03:46:55;96522.03;;;11.32
19102;BMP280;9683;49.028;12.064;2023-03-25T03:49:27;96531.59;;;11.33
19102;BMP280;9683;49.028;12.064;2023-03-25T03:51:58;96532.41;;;11.33
19102;BMP280;9683;49.028;12.064;2023-03-25T03:54:30;96534.75;;;11.30
19102;BMP280;9683;49.028;12.064;2023-03-25T03:57:00;96534.75;;;11.30
19102;BMP280;9683;49.028;12.064;2023-03-25T03:59:34;96545.41;;;11.30
19102;BMP280;9683;49.028;12.064;2023-03-25T04:02:06;96543.56;;;11.30
19102;BMP280;9683;49.028;12.064;2023-03-25T04:04:38;96545.19;;;11.31
19102;BMP280;9683;49.028;12.064;2023-03-25T04:07:11;96545.66;;;11.28
19102;BMP280;9683;49.028;12.064;2023-03-25T04:09:47;96540.59;;;11.27
19102;BMP280;9683;49.028;12.064;2023-03-25T04:12:21;96543.47;;;11.25
19102;BMP280;9683;49.028;12.064;2023-03-25T04:14:50;96537.28;;;11.20
19102;BMP280;9683;49.028;12.064;2023-03-25T04:17:16;96539.16;;;11.19
19102;BMP280;9683;49.028;12.064;2023-03-25T04:19:43;96531.91;;;11.15
19102;BMP280;9683;49.028;12.064;2023-03-25T04:22:14;96542.28;;;11.16
19102;BMP280;9683;49.028;12.064;2023-03-25T04:24:43;96539.63;;;11.16
19102;BMP280;9683;49.028;12.064;2023-03-25T04:27:10;96547.06;;;11.14
19102;BMP280;9683;49.028;12.064;2023-03-25T04:29:38;96548.09;;;11.13
19102;BMP280;9683;49.028;12.064;2023-03-25T04:32:07;96545.94;;;11.10
19102;BMP280;9683;49.028;12.064;2023-03-25T04:34:34;96530.69;;;11.06
19102;BMP280;9683;49.028;12.064;2023-03-25T04:37:00;96538.09;;;11.03
19102;BMP280;9683;49.028;12.064;2023-03-25T04:39:27;96544.00;;;11.06
19102;BMP280;9683;49.028;12.064;2023-03-25T04:41:58;96544.56;;;11.08
19102;BMP280;9683;49.028;12.064;2023-03-25T04:44:26;96538.91;;;11.04
19102;BMP280;9683;49.028;12.064;2023-03-25T04:46:53;96538.69;;;11.06
19102;BMP280;9683;49.028;12.064;2023-03-25T04:49:22;96545.63;;;11.07
19102;BMP280;9683;49.028;12.064;2023-03-25T04:51:50;96544.00;;;11.06
19102;BMP280;9683;49.028;12.064;2023-03-25T04:54:17;96543.44;;;11.03
19102;BMP280;9683;49.028;12.064;2023-03-25T04:56:44;96540.75;;;11.03
19102;BMP280;9683;49.028;12.064;2023-03-25T04:59:13;96538.69;;;11.06
19102;BMP280;9683;49.028;12.064;2023-03-25T05:01:41;96529.88;;;11.05
19102;BMP280;9683;49.028;12.064;2023-03-25T05:04:12;96538.69;;;11.06
19102;BMP280;9683;49.028;12.064;2023-03-25T05:06:43;96531.19;;;11.02
19102;BMP280;9683;49.028;12.064;2023-03-25T05:09:11;96535.63;;;10.97
19102;BMP280;9683;49.028;12.064;2023-03-25T05:11:38;96534.22;;;10.94
19102;BMP280;9683;49.028;12.064;2023-03-25T05:14:06;96535.31;;;10.93
19102;BMP280;9683;49.028;12.064;2023-03-25T05:16:34;96534.22;;;10.94
19102;BMP280;9683;49.028;12.064;2023-03-25T05:19:01;96526.75;;;10.91
19102;BMP280;9683;49.028;12.064;2023-03-25T05:21:28;96530.22;;;10.92
19102;BMP280;9683;49.028;12.064;2023-03-25T05:23:55;96551.19;;;10.88
19102;BMP280;9683;49.028;12.064;2023-03-25T05:26:23;96540.69;;;10.82
19102;BMP280;9683;49.028;12.064;2023-03-25T05:28:49;96544.41;;;10.81
19102;BMP280;9683;49.028;12.064;2023-03-25T05:31:16;96547.09;;;10.81
19102;BMP280;9683;49.028;12.064;2023-03-25T05:33:44;96552.41;;;10.81
19102;BMP280;9683;49.028;12.064;2023-03-25T05:36:11;96545.22;;;10.81
19102;BMP280;9683;49.028;12.064;2023-03-25T05:38:38;96545.56;;;10.85
19102;BMP280;9683;49.028;12.064;2023-03-25T05:41:06;96550.38;;;10.88
19102;BMP280;9683;49.028;12.064;2023-03-25T05:43:35;96548.75;;;10.87
19102;BMP280;9683;49.028;12.064;2023-03-25T05:46:02;96547.47;;;10.89
19102;BMP280;9683;49.028;12.064;2023-03-25T05:48:29;96552.22;;;10.87
19102;BMP280;9683;49.028;12.064;2023-03-25T05:50:59;96562.38;;;10.90
19102;BMP280;9683;49.028;12.064;2023-03-25T05:53:26;96569.00;;;10.88
19102;BMP280;9683;49.028;12.064;2023-03-25T05:55:55;96578.84;;;10.87
19102;BMP280;9683;49.028;12.064;2023-03-25T05:58:21;96581.81;;;10.91
19102;BMP280;9683;49.028;12.064;2023-03-25T06:00:49;96564.25;;;10.90
19102;BMP280;9683;49.028;12.064;2023-03-25T06:03:17;96570.63;;;10.89
19102;BMP280;9683;49.028;12.064;2023-03-25T06:05:45;96572.47;;;10.88
19102;BMP280;9683;49.028;12.064;2023-03-25T06:08:13;96579.06;;;10.86
19102;BMP280;9683;49.028;12.064;2023-03-25T06:10:41;96596.91;;;10.85
19102;BMP280;9683;49.028;12.064;2023-03-25T06:13:10;96580.94;;;10.85
19102;BMP280;9683;49.028;12.064;2023-03-25T06:15:36;96592.16;;;10.87
19102;BMP280;9683;49.028;12.064;2023-03-25T06:18:05;96578.03;;;10.87
19102;BMP280;9683;49.028;12.064;2023-03-25T06:20:31;96593.44;;;10.85
19102;BMP280;9683;49.028;12.064;2023-03-25T06:22:58;96595.78;;;10.81
19102;BMP280;9683;49.028;12.064;2023-03-25T06:25:26;96604.31;;;10.83
19102;BMP280;9683;49.028;12.064;2023-03-25T06:27:52;96595.53;;;10.83
19102;BMP280;9683;49.028;12.064;2023-03-25T06:30:20;96612.06;;;10.85
19102;BMP280;9683;49.028;12.064;2023-03-25T06:32:47;96621.09;;;10.84
19102;BMP280;9683;49.028;12.064;2023-03-25T06:35:17;96616.25;;;10.81
19102;BMP280;9683;49.028;12.064;2023-03-25T06:37:46;96622.63;;;10.80
19102;BMP280;9683;49.028;12.064;2023-03-25T06:40:13;96612.78;;;10.80
19102;BMP280;9683;49.028;12.064;2023-03-25T06:42:41;96612.53;;;10.82
19102;BMP280;9683;49.028;12.064;2023-03-25T06:45:08;96617.06;;;10.81
19102;BMP280;9683;49.028;12.064;2023-03-25T06:47:36;96606.97;;;10.83
19102;BMP280;9683;49.028;12.064;2023-03-25T06:50:03;96612.88;;;10.85
19102;BMP280;9683;49.028;12.064;2023-03-25T06:52:30;96627.72;;;10.81
19102;BMP280;9683;49.028;12.064;2023-03-25T06:54:56;96613.59;;;10.81
19102;BMP280;9683;49.028;12.064;2023-03-25T06:57:23;96635.69;;;10.81
19102;BMP280;9683;49.028;12.064;2023-03-25T06:59:51;96625.38;;;10.85
19102;BMP280;9683;49.028;12.064;2023-03-25T07:02:18;96644.81;;;10.85
19102;BMP280;9683;49.028;12.064;2023-03-25T07:04:44;96638.41;;;10.86
19102;BMP280;9683;49.028;12.064;2023-03-25T07:07:11;96632.56;;;10.84
19102;BMP280;9683;49.028;12.064;2023-03-25T07:09:38;96634.16;;;10.85
19102;BMP280;9683;49.028;12.064;2023-03-25T07:12:05;96645.53;;;10.81
19102;BMP280;9683;49.028;12.064;2023-03-25T07:14:32;96649.72;;;10.77
19102;BMP280;9683;49.028;12.064;2023-03-25T07:17:00;96654.78;;;10.78
19102;BMP280;9683;49.028;12.064;2023-03-25T07:19:26;96652.94;;;10.79
19102;BMP280;9683;49.028;12.064;2023-03-25T07:21:53;96688.91;;;10.81
19102;BMP280;9683;49.028;12.064;2023-03-25T07:24:20;96662.53;;;10.80
19102;BMP280;9683;49.028;12.064;2023-03-25T07:26:46;96656.97;;;10.81
19102;BMP280;9683;49.028;12.064;2023-03-25T07:29:13;96669.00;;;10.84
19102;BMP280;9683;49.028;12.064;2023-03-25T07:31:39;96649.66;;;10.88
19102;BMP280;9683;49.028;12.064;2023-03-25T07:34:07;96657.47;;;10.95
19102;BMP280;9683;49.028;12.064;2023-03-25T07:36:34;96653.75;;;10.96
19102;BMP280;9683;49.028;12.064;2023-03-25T07:39:01;96654.56;;;10.96
19102;BMP280;9683;49.028;12.064;2023-03-25T07:41:28;96661.75;;;10.96
19102;BMP280;9683;49.028;12.064;2023-03-25T07:43:55;96669.25;;;10.99
19102;BMP280;9683;49.028;12.064;2023-03-25T07:46:21;96657.56;;;11.00
19102;BMP280;9683;49.028;12.064;2023-03-25T07:48:48;96655.00;;;11.05
19102;BMP280;9683;49.028;12.064;2023-03-25T07:51:16;96676.84;;;11.07
19102;BMP280;9683;49.028;12.064;2023-03-25T07:53:43;96663.19;;;11.03
19102;BMP280;9683;49.028;12.064;2023-03-25T07:56:10;96689.38;;;11.07
19102;BMP280;9683;49.028;12.064;2023-03-25T07:58:37;96662.00;;;11.11
19102;BMP280;9683;49.028;12.064;2023-03-25T08:01:05;96665.00;;;11.15
19102;BMP280;9683;49.028;12.064;2023-03-25T08:03:32;96666.38;;;11.17
19102;BMP280;9683;49.028;12.064;2023-03-25T08:05:59;96655.94;;;11.16
19102;BMP280;9683;49.028;12.064;2023-03-25T08:08:28;96662.50;;;11.25
19102;BMP280;9683;49.028;12.064;2023-03-25T08:10:55;96656.22;;;11.31
19102;BMP280;9683;49.028;12.064;2023-03-25T08:13:22;96658.38;;;11.34
19102;BMP280;9683;49.028;12.064;2023-03-25T08:15:49;96681.63;;;11.38
19102;BMP280;9683;49.028;12.064;2023-03-25T08:18:16;96664.34;;;11.41
19102;BMP280;9683;49.028;12.064;2023-03-25T08:20:42;96649.75;;;11.43
19102;BMP280;9683;49.028;12.064;2023-03-25T08:23:11;96642.56;;;11.44
19102;BMP280;9683;49.028;12.064;2023-03-25T08:25:45;96659.91;;;11.46
19102;BMP280;9683;49.028;12.064;2023-03-25T08:28:13;96650.63;;;11.49
19102;BMP280;9683;49.028;12.064;2023-03-25T08:30:41;96638.91;;;11.50
19102;BMP280;9683;49.028;12.064;2023-03-25T08:33:09;96649.09;;;11.53
19102;BMP280;9683;49.028;12.064;2023-03-25T08:35:37;96665.56;;;11.50
19102;BMP280;9683;49.028;12.064;2023-03-25T08:38:04;96647.19;;;11.48
19102;BMP280;9683;49.028;12.064;2023-03-25T08:40:31;96661.28;;;11.49
19102;BMP280;9683;49.028;12.064;2023-03-25T08:42:59;96667.50;;;11.55
19102;BMP280;9683;49.028;12.064;2023-03-25T08:45:28;96658.78;;;11.59
19102;BMP280;9683;49.028;12.064;2023-03-25T08:47:56;96666.28;;;11.62
19102;BMP280;9683;49.028;12.064;2023-03-25T08:50:23;96657.22;;;11.63
19102;BMP280;9683;49.028;12.064;2023-03-25T08:52:50;96651.91;;;11.63
19102;BMP280;9683;49.028;12.064;2023-03-25T08:55:18;96647.97;;;11.66
19102;BMP280;9683;49.028;12.064;2023-03-25T08:57:44;96650.94;;;11.69
19102;BMP280;9683;49.028;12.064;2023-03-25T09:00:13;96644.66;;;11.75
19102;BMP280;9683;49.028;12.064;2023-03-25T09:02:41;96654.03;;;11.78
19102;BMP280;9683;49.028;12.064;2023-03-25T09:05:08;96653.75;;;11.79
19102;BMP280;9683;49.028;12.064;2023-03-25T09:07:35;96639.69;;;11.84
19102;BMP280;9683;49.028;12.064;2023-03-25T09:10:03;96654.16;;;11.88
19102;BMP280;9683;49.028;12.064;2023-03-25T09:12:30;96655.25;;;11.92
19102;BMP280;9683;49.028;12.064;2023-03-25T09:14:57;96655.56;;;11.95
19102;BMP280;9683;49.028;12.064;2023-03-25T09:17:25;96658.00;;;11.97
19102;BMP280;9683;49.028;12.064;2023-03-25T09:19:51;96663.41;;;12.02
19102;BMP280;9683;49.028;12.064;2023-03-25T09:22:18;96624.03;;;12.09
19102;BMP280;9683;49.028;12.064;2023-03-25T09:24:45;96628.06;;;12.12
19102;BMP280;9683;49.028;12.064;2023-03-25T09:27:11;96667.56;;;12.15
19102;BMP280;9683;49.028;12.064;2023-03-25T09:29:38;96656.41;;;12.18
19102;BMP280;9683;49.028;12.064;2023-03-25T09:32:05;96651.13;;;12.23
19102;BMP280;9683;49.028;12.064;2023-03-25T09:34:33;96634.91;;;12.24
19102;BMP280;9683;49.028;12.064;2023-03-25T09:37:00;96652.50;;;12.25
19102;BMP280;9683;49.028;12.064;2023-03-25T09:39:27;96642.94;;;12.29
19102;BMP280;9683;49.028;12.064;2023-03-25T09:42:03;96640.53;;;12.28
19102;BMP280;9683;49.028;12.064;2023-03-25T09:44:36;96644.50;;;12.25
19102;BMP280;9683;49.028;12.064;2023-03-25T09:47:06;96658.94;;;12.29
19102;BMP280;9683;49.028;12.064;2023-03-25T09:49:38;96633.06;;;12.30
19102;BMP280;9683;49.028;12.064;2023-03-25T09:52:11;96630.72;;;12.33
19102;BMP280;9683;49.028;12.064;2023-03-25T09:54:45;96644.13;;;12.38
19102;BMP280;9683;49.028;12.064;2023-03-25T09:57:17;96631.34;;;12.40
19102;BMP280;9683;49.028;12.064;2023-03-25T09:59:47;96638.34;;;12.47
19102;BMP280;9683;49.028;12.064;2023-03-25T10:02:26;96614.63;;;12.50
19102;BMP280;9683;49.028;12.064;2023-03-25T10:05:12;96612.81;;;12.56
19102;BMP280;9683;49.028;12.064;2023-03-25T10:07:51;96610.97;;;12.56
19102;BMP280;9683;49.028;12.064;2023-03-25T10:10:26;96606.94;;;12.54
19102;BMP280;9683;49.028;12.064;2023-03-25T10:12:59;96608.28;;;12.56
19102;BMP280;9683;49.028;12.064;2023-03-25T10:15:33;96604.00;;;12.55
19102;BMP280;9683;49.028;12.064;2023-03-25T10:18:13;96605.69;;;12.61
19102;BMP280;9683;49.028;12.064;2023-03-25T10:20:51;96606.03;;;12.70
19102;BMP280;9683;49.028;12.064;2023-03-25T10:23:22;96619.91;;;12.72
19102;BMP280;9683;49.028;12.064;2023-03-25T10:25:55;96622.09;;;12.75
19102;BMP280;9683;49.028;12.064;2023-03-25T10:28:27;96606.09;;;12.75
19102;BMP280;9683;49.028;12.064;2023-03-25T10:30:57;96606.09;;;12.75
19102;BMP280;9683;49.028;12.064;2023-03-25T10:33:30;96591.66;;;12.76
19102;BMP280;9683;49.028;12.064;2023-03-25T10:36:03;96600.47;;;12.76
19102;BMP280;9683;49.028;12.064;2023-03-25T10:38:34;96591.13;;;12.74
19102;BMP280;9683;49.028;12.064;2023-03-25T10:41:10;96611.44;;;12.75
19102;BMP280;9683;49.028;12.064;2023-03-25T10:43:41;96598.06;;;12.75
19102;BMP280;9683;49.028;12.064;2023-03-25T10:46:13;96662.63;;;12.72
19102;BMP280;9683;49.028;12.064;2023-03-25T10:48:44;96603.59;;;12.68
19102;BMP280;9683;49.028;12.064;2023-03-25T10:51:14;96618.75;;;12.63
19102;BMP280;9683;49.028;12.064;2023-03-25T10:53:46;96596.66;;;12.67
19102;BMP280;9683;49.028;12.064;2023-03-25T10:56:14;96598.84;;;12.70
19102;BMP280;9683;49.028;12.064;2023-03-25T10:58:44;96594.84;;;12.73
19102;BMP280;9683;49.028;12.064;2023-03-25T11:01:13;96583.41;;;12.77
19102;BMP280;9683;49.028;12.064;2023-03-25T11:03:42;96568.63;;;12.65
19102;BMP280;9683;49.028;12.064;2023-03-25T11:06:22;96592.47;;;12.76
19102;BMP280;9683;49.028;12.064;2023-03-25T11:09:12;96589.59;;;12.83
19102;BMP280;9683;49.028;12.064;2023-03-25T11:11:40;96582.22;;;12.95
19102;BMP280;9683;49.028;12.064;2023-03-25T11:14:07;96573.19;;;13.01
19102;BMP280;9683;49.028;12.064;2023-03-25T11:16:39;96569.31;;;13.14
19102;BMP280;9683;49.028;12.064;2023-03-25T11:19:15;96555.47;;;13.22
19102;BMP280;9683;49.028;12.064;2023-03-25T11:21:46;96551.75;;;13.23
19102;BMP280;9683;49.028;12.064;2023-03-25T11:24:17;96546.44;;;13.28
19102;BMP280;9683;49.028;12.064;2023-03-25T11:26:45;96542.44;;;13.30
19102;BMP280;9683;49.028;12.064;2023-03-25T11:29:15;96552.84;;;13.27
19102;BMP280;9683;49.028;12.064;2023-03-25T11:31:54;96549.63;;;13.25
19102;BMP280;9683;49.028;12.064;2023-03-25T11:34:21;96537.03;;;13.20
19102;BMP280;9683;49.028;12.064;2023-03-25T11:36:53;96558.13;;;13.17
19102;BMP280;9683;49.028;12.064;2023-03-25T11:39:26;96551.13;;;13.11
19102;BMP280;9683;49.028;12.064;2023-03-25T11:41:54;96596.41;;;12.96
19102;BMP280;9683;49.028;12.064;2023-03-25T11:44:22;96581.78;;;12.76
19102;BMP280;9683;49.028;12.064;2023-03-25T11:46:53;96578.94;;;12.56
19102;BMP280;9683;49.028;12.064;2023-03-25T11:49:21;96568.91;;;12.41
19102;BMP280;9683;49.028;12.064;2023-03-25T11:51:48;96570.22;;;12.39
19102;BMP280;9683;49.028;12.064;2023-03-25T11:54:17;96586.00;;;12.40
19102;BMP280;9683;49.028;12.064;2023-03-25T11:56:47;96590.22;;;12.36
19102;BMP280;9683;49.028;12.064;2023-03-25T11:59:21;96576.88;;;12.36
19102;BMP280;9683;49.028;12.064;2023-03-25T12:01:50;96580.78;;;12.29
19102;BMP280;9683;49.028;12.064;2023-03-25T12:04:19;96588.00;;;12.28
19102;BMP280;9683;49.028;12.064;2023-03-25T12:06:54;96567.72;;;12.27
19102;BMP280;9683;49.028;12.064;2023-03-25T12:09:23;96571.13;;;12.23
19102;BMP280;9683;49.028;12.064;2023-03-25T12:12:01;96541.78;;;12.23
19102;BMP280;9683;49.028;12.064;2023-03-25T12:14:38;96546.63;;;12.26
19102;BMP280;9683;49.028;12.064;2023-03-25T12:17:17;96530.59;;;12.26
19102;BMP280;9683;49.028;12.064;2023-03-25T12:19:56;96534.44;;;12.35
19102;BMP280;9683;49.028;12.064;2023-03-25T12:22:35;96527.78;;;12.37
19102;BMP280;9683;49.028;12.064;2023-03-25T12:25:26;96524.69;;;12.46
19102;BMP280;9683;49.028;12.064;2023-03-25T12:28:04;96533.00;;;12.54
19102;BMP280;9683;49.028;12.064;2023-03-25T12:30:44;96511.75;;;12.64
19102;BMP280;9683;49.028;12.064;2023-03-25T12:33:23;96523.81;;;12.72
19102;BMP280;9683;49.028;12.064;2023-03-25T12:36:15;96511.09;;;12.79
19102;BMP280;9683;49.028;12.064;2023-03-25T12:38:51;96509.75;;;12.81
19102;BMP280;9683;49.028;12.064;2023-03-25T12:41:26;96507.66;;;12.88
19102;BMP280;9683;49.028;12.064;2023-03-25T12:43:59;96502.66;;;12.97
19102;BMP280;9683;49.028;12.064;2023-03-25T12:46:40;96506.16;;;13.03
19102;BMP280;9683;49.028;12.064;2023-03-25T12:49:19;96501.94;;;13.07
19102;BMP280;9683;49.028;12.064;2023-03-25T12:51:58;96500.88;;;13.08
19102;BMP280;9683;49.028;12.064;2023-03-25T12:54:49;96498.72;;;13.10
19102;BMP280;9683;49.028;12.064;2023-03-25T12:57:31;96516.09;;;13.07
19102;BMP280;9683;49.028;12.064;2023-03-25T13:00:33;96505.63;;;13.01
19102;BMP280;9683;49.028;12.064;2023-03-25T13:03:32;96510.31;;;12.83
19102;BMP280;9683;49.028;12.064;2023-03-25T13:06:08;96518.53;;;12.77
19102;BMP280;9683;49.028;12.064;2023-03-25T13:08:43;96543.78;;;12.64
19102;BMP280;9683;49.028;12.064;2023-03-25T13:11:14;96544.50;;;12.28
19102;BMP280;9683;49.028;12.064;2023-03-25T13:13:45;96577.41;;;11.90
19102;BMP280;9683;49.028;12.064;2023-03-25T13:16:15;96555.69;;;11.60
19102;BMP280;9683;49.028;12.064;2023-03-25T13:18:46;96557.38;;;11.27
19102;BMP280;9683;49.028;12.064;2023-03-25T13:21:16;96546.06;;;11.20
19102;BMP280;9683;49.028;12.064;2023-03-25T13:23:49;96532.22;;;11.18
19102;BMP280;9683;49.028;12.064;2023-03-25T13:26:20;96514.69;;;11.22
19102;BMP280;9683;49.028;12.064;2023-03-25T13:28:55;96539.19;;;11.24
19102;BMP280;9683;49.028;12.064;2023-03-25T13:31:26;96542.66;;;11.25
19102;BMP280;9683;49.028;12.064;2023-03-25T13:34:02;96543.25;;;11.27
19102;BMP280;9683;49.028;12.064;2023-03-25T13:36:35;96554.72;;;11.27
19102;BMP280;9683;49.028;12.064;2023-03-25T13:39:06;96553.31;;;11.25
19102;BMP280;9683;49.028;12.064;2023-03-25T13:41:39;96544.53;;;11.24
19102;BMP280;9683;49.028;12.064;2023-03-25T13:44:10;96532.34;;;11.28
19102;BMP280;9683;49.028;12.064;2023-03-25T13:46:41;96532.97;;;11.35
19102;BMP280;9683;49.028;12.064;2023-03-25T13:49:13;96529.69;;;11.50
19102;BMP280;9683;49.028;12.064;2023-03-25T13:51:41;96525.88;;;11.63
19102;BMP280;9683;49.028;12.064;2023-03-25T13:54:11;96528.19;;;11.76
19102;BMP280;9683;49.028;12.064;2023-03-25T14:00:01;96534.41;;;12.08
19102;BMP280;9683;49.028;12.064;2023-03-25T14:02:53;96540.16;;;12.22
19102;BMP280;9683;49.028;12.064;2023-03-25T14:05:42;96541.28;;;12.26
19102;BMP280;9683;49.028;12.064;2023-03-25T14:08:28;96539.06;;;12.45
19102;BMP280;9683;49.028;12.064;2023-03-25T14:11:10;96532.00;;;12.60
19102;BMP280;9683;49.028;12.064;2023-03-25T14:13:43;96513.75;;;12.79
19102;BMP280;9683;49.028;12.064;2023-03-25T14:16:13;96528.25;;;12.93
19102;BMP280;9683;49.028;12.064;2023-03-25T14:18:42;96533.13;;;13.01
19102;BMP280;9683;49.028;12.064;2023-03-25T14:21:25;96518.84;;;13.12
19102;BMP280;9683;49.028;12.064;2023-03-25T14:24:00;96510.63;;;13.24
19102;BMP280;9683;49.028;12.064;2023-03-25T14:26:27;96505.88;;;13.36
19102;BMP280;9683;49.028;12.064;2023-03-25T14:28:54;96501.41;;;13.52
19102;BMP280;9683;49.028;12.064;2023-03-25T14:31:30;96493.47;;;13.67
19102;BMP280;9683;49.028;12.064;2023-03-25T14:34:22;96492.41;;;13.73